createdAt,value
2017-12-31T00:00:45.309Z,0
2017-12-31T00:01:45.976Z,0
2017-12-31T00:02:46.636Z,0
2017-12-31T00:03:47.300Z,0
2017-12-31T00:04:48.013Z,0
2017-12-31T00:05:48.675Z,0
2017-12-31T00:06:49.338Z,0
2017-12-31T00:07:50.037Z,0
2017-12-31T00:08:50.700Z,0
2017-12-31T00:09:51.363Z,0
2017-12-31T00:10:52.027Z,0
2017-12-31T00:11:52.689Z,0
2017-12-31T00:12:53.353Z,0
2017-12-31T00:13:54.016Z,0
2017-12-31T00:14:54.816Z,0
2017-12-31T00:15:55.547Z,0
2017-12-31T00:16:56.292Z,0
2017-12-31T00:17:57.020Z,0
2017-12-31T00:18:57.804Z,0
2017-12-31T00:19:58.631Z,0
2017-12-31T00:20:59.437Z,0
2017-12-31T00:22:00.167Z,0
2017-12-31T00:23:00.918Z,0
2017-12-31T00:24:01.670Z,0
2017-12-31T00:25:02.538Z,0
2017-12-31T00:26:03.322Z,0
2017-12-31T00:27:04.055Z,0
2017-12-31T00:28:04.764Z,0
2017-12-31T00:29:05.495Z,0
2017-12-31T00:30:06.237Z,0
2017-12-31T00:31:06.930Z,0
2017-12-31T00:32:07.594Z,0
2017-12-31T00:33:08.257Z,0
2017-12-31T00:34:08.920Z,0
2017-12-31T00:35:09.584Z,0
2017-12-31T00:36:10.306Z,0
2017-12-31T00:37:10.910Z,0
2017-12-31T00:38:11.572Z,0
2017-12-31T00:39:12.235Z,0
2017-12-31T00:40:12.898Z,0
2017-12-31T00:41:13.561Z,0
2017-12-31T00:42:14.223Z,0
2017-12-31T00:43:14.886Z,0
2017-12-31T00:44:15.550Z,0
2017-12-31T00:45:16.212Z,0
2017-12-31T00:46:16.874Z,0
2017-12-31T00:47:17.537Z,0
2017-12-31T00:48:18.238Z,0
2017-12-31T00:49:18.937Z,0
2017-12-31T00:50:19.602Z,0
2017-12-31T00:51:20.269Z,0
2017-12-31T00:52:20.931Z,0
2017-12-31T00:53:21.596Z,0
2017-12-31T00:54:22.260Z,0
2017-12-31T00:55:22.926Z,0
2017-12-31T00:56:23.624Z,0
2017-12-31T00:57:24.290Z,0
2017-12-31T00:58:24.954Z,0
2017-12-31T00:59:25.619Z,0
2017-12-31T01:00:26.281Z,0
2017-12-31T01:01:26.953Z,0
2017-12-31T01:02:27.608Z,0
2017-12-31T01:03:28.271Z,0
2017-12-31T01:04:28.935Z,0
2017-12-31T01:05:29.604Z,0
2017-12-31T01:06:30.259Z,0
2017-12-31T01:07:30.925Z,0
2017-12-31T01:08:31.586Z,0
2017-12-31T01:09:32.249Z,0
2017-12-31T01:10:32.962Z,0
2017-12-31T01:11:33.627Z,0
2017-12-31T01:12:34.291Z,0
2017-12-31T01:13:34.954Z,0
2017-12-31T01:14:35.619Z,0
2017-12-31T01:15:36.283Z,0
2017-12-31T01:16:36.946Z,0
2017-12-31T01:17:37.610Z,0
2017-12-31T01:18:38.274Z,0
2017-12-31T01:19:38.937Z,0
2017-12-31T01:20:39.601Z,0
2017-12-31T01:21:40.265Z,0
2017-12-31T01:22:40.928Z,0
2017-12-31T01:23:41.590Z,0
2017-12-31T01:24:42.254Z,0
2017-12-31T01:25:42.915Z,0
2017-12-31T01:26:43.578Z,0
2017-12-31T01:27:44.241Z,0
2017-12-31T01:28:44.904Z,0
2017-12-31T01:29:45.568Z,0
2017-12-31T01:30:46.231Z,0
2017-12-31T01:31:46.893Z,0
2017-12-31T01:32:47.556Z,0
2017-12-31T01:33:48.264Z,0
2017-12-31T01:34:48.881Z,0
2017-12-31T01:35:49.545Z,0
2017-12-31T01:36:50.207Z,0
2017-12-31T01:37:50.871Z,0
2017-12-31T01:38:51.534Z,0
2017-12-31T01:39:52.196Z,0
2017-12-31T01:40:52.860Z,0
2017-12-31T01:41:53.523Z,0
2017-12-31T01:42:54.185Z,0
2017-12-31T01:43:54.848Z,0
2017-12-31T01:44:55.510Z,0
2017-12-31T01:45:56.174Z,0
2017-12-31T01:46:56.835Z,0
2017-12-31T01:47:57.500Z,0
2017-12-31T01:48:58.163Z,0
2017-12-31T01:49:58.826Z,0
2017-12-31T01:50:59.488Z,0
2017-12-31T01:52:00.151Z,0
2017-12-31T01:53:00.818Z,0
2017-12-31T01:54:01.478Z,0
2017-12-31T01:55:02.141Z,0
2017-12-31T01:56:02.804Z,0
2017-12-31T01:57:03.466Z,0
2017-12-31T01:58:04.129Z,0
2017-12-31T01:59:04.791Z,0
2017-12-31T02:00:05.456Z,0
2017-12-31T02:01:06.118Z,0
2017-12-31T02:02:06.781Z,0
2017-12-31T02:03:07.450Z,0
2017-12-31T02:04:08.106Z,0
2017-12-31T02:05:08.769Z,0
2017-12-31T02:06:09.433Z,0
2017-12-31T02:07:10.095Z,0
2017-12-31T02:08:10.758Z,0
2017-12-31T02:09:11.421Z,0
2017-12-31T02:10:12.083Z,0
2017-12-31T02:11:12.747Z,0
2017-12-31T02:12:13.410Z,0
2017-12-31T02:13:14.073Z,0
2017-12-31T02:14:14.736Z,0
2017-12-31T02:15:15.399Z,0
2017-12-31T02:16:16.063Z,0
2017-12-31T02:17:16.724Z,0
2017-12-31T02:18:17.391Z,0
2017-12-31T02:19:18.052Z,0
2017-12-31T02:20:18.716Z,0
2017-12-31T02:21:19.377Z,0
2017-12-31T02:22:20.040Z,0
2017-12-31T02:23:20.702Z,0
2017-12-31T02:24:21.364Z,0
2017-12-31T02:25:22.058Z,0
2017-12-31T02:26:22.727Z,0
2017-12-31T02:27:23.390Z,0
2017-12-31T02:28:24.053Z,0
2017-12-31T02:29:24.719Z,0
2017-12-31T02:30:25.382Z,0
2017-12-31T02:31:26.046Z,0
2017-12-31T02:32:26.743Z,0
2017-12-31T02:33:27.406Z,0
2017-12-31T02:34:28.069Z,0
2017-12-31T02:35:28.731Z,0
2017-12-31T02:36:29.398Z,0
2017-12-31T02:37:30.055Z,0
2017-12-31T02:38:30.719Z,0
2017-12-31T02:39:31.380Z,0
2017-12-31T02:40:32.043Z,0
2017-12-31T02:41:32.706Z,0
2017-12-31T02:42:33.369Z,0
2017-12-31T02:43:34.031Z,0
2017-12-31T02:44:34.693Z,0
2017-12-31T02:45:35.355Z,0
2017-12-31T02:46:36.020Z,0
2017-12-31T02:47:36.683Z,0
2017-12-31T02:48:37.344Z,0
2017-12-31T02:49:38.008Z,0
2017-12-31T02:50:38.671Z,0
2017-12-31T02:51:39.334Z,0
2017-12-31T02:52:39.997Z,0
2017-12-31T02:53:40.674Z,0
2017-12-31T02:54:41.321Z,0
2017-12-31T02:55:41.985Z,0
2017-12-31T02:56:42.649Z,0
2017-12-31T02:57:43.311Z,0
2017-12-31T02:58:43.974Z,0
2017-12-31T02:59:44.637Z,0
2017-12-31T03:00:45.300Z,0
2017-12-31T03:01:45.962Z,0
2017-12-31T03:02:46.625Z,0
2017-12-31T03:03:47.289Z,0
2017-12-31T03:04:47.951Z,0
2017-12-31T03:05:48.615Z,0
2017-12-31T03:06:49.278Z,0
2017-12-31T03:07:49.940Z,0
2017-12-31T03:08:50.602Z,0
2017-12-31T03:09:51.266Z,0
2017-12-31T03:10:51.931Z,0
2017-12-31T03:11:52.592Z,0
2017-12-31T03:12:53.254Z,0
2017-12-31T03:13:53.955Z,0
2017-12-31T03:14:54.619Z,0
2017-12-31T03:15:55.286Z,0
2017-12-31T03:16:55.998Z,0
2017-12-31T03:17:56.661Z,0
2017-12-31T03:18:57.321Z,0
2017-12-31T03:19:57.983Z,0
2017-12-31T03:20:58.646Z,0
2017-12-31T03:21:59.314Z,0
2017-12-31T03:22:59.972Z,0
2017-12-31T03:24:00.634Z,0
2017-12-31T03:25:01.297Z,0
2017-12-31T03:26:01.959Z,0
2017-12-31T03:27:02.621Z,0
2017-12-31T03:28:03.322Z,0
2017-12-31T03:29:03.985Z,0
2017-12-31T03:30:04.649Z,0
2017-12-31T03:31:05.313Z,0
2017-12-31T03:32:05.976Z,0
2017-12-31T03:33:06.638Z,0
2017-12-31T03:34:07.300Z,0
2017-12-31T03:35:07.967Z,0
2017-12-31T03:36:08.626Z,0
2017-12-31T03:37:09.289Z,0
2017-12-31T03:38:09.950Z,0
2017-12-31T03:39:10.614Z,0
2017-12-31T03:40:11.276Z,0
2017-12-31T03:41:11.937Z,0
2017-12-31T03:42:12.600Z,0
2017-12-31T03:43:13.262Z,0
2017-12-31T03:44:13.926Z,0
2017-12-31T03:45:14.588Z,0
2017-12-31T03:46:15.252Z,0
2017-12-31T03:47:15.914Z,0
2017-12-31T03:48:16.578Z,0
2017-12-31T03:49:17.240Z,0
2017-12-31T03:50:17.902Z,0
2017-12-31T03:51:18.565Z,0
2017-12-31T03:52:19.229Z,0
2017-12-31T03:53:19.890Z,0
2017-12-31T03:54:20.555Z,0
2017-12-31T03:55:21.215Z,0
2017-12-31T03:56:21.878Z,0
2017-12-31T03:57:22.540Z,0
2017-12-31T03:58:23.203Z,0
2017-12-31T03:59:23.865Z,0
2017-12-31T04:00:24.529Z,0
2017-12-31T04:01:25.190Z,0
2017-12-31T04:02:25.853Z,0
2017-12-31T04:03:26.516Z,0
2017-12-31T04:04:27.178Z,0
2017-12-31T04:05:27.841Z,0
2017-12-31T04:06:28.503Z,0
2017-12-31T04:07:29.168Z,0
2017-12-31T04:08:29.829Z,0
2017-12-31T04:09:30.538Z,0
2017-12-31T04:10:31.153Z,0
2017-12-31T04:11:31.820Z,0
2017-12-31T04:12:32.477Z,0
2017-12-31T04:13:33.140Z,0
2017-12-31T04:14:33.816Z,0
2017-12-31T04:15:34.467Z,0
2017-12-31T04:16:35.128Z,0
2017-12-31T04:17:35.789Z,0
2017-12-31T04:18:36.452Z,0
2017-12-31T04:19:37.113Z,0
2017-12-31T04:20:37.778Z,0
2017-12-31T04:21:38.445Z,0
2017-12-31T04:22:39.101Z,0
2017-12-31T04:23:39.763Z,0
2017-12-31T04:24:40.426Z,0
2017-12-31T04:25:41.089Z,0
2017-12-31T04:26:41.753Z,0
2017-12-31T04:27:42.416Z,0
2017-12-31T04:28:43.079Z,0
2017-12-31T04:29:43.743Z,0
2017-12-31T04:30:44.406Z,0
2017-12-31T04:31:45.069Z,0
2017-12-31T04:32:45.732Z,0
2017-12-31T04:33:46.397Z,0
2017-12-31T04:34:47.061Z,0
2017-12-31T04:35:47.725Z,0
2017-12-31T04:36:48.390Z,0
2017-12-31T04:37:49.054Z,0
2017-12-31T04:38:49.716Z,0
2017-12-31T04:39:50.378Z,0
2017-12-31T04:40:51.041Z,0
2017-12-31T04:41:51.702Z,0
2017-12-31T04:42:52.366Z,0
2017-12-31T04:43:53.029Z,0
2017-12-31T04:44:53.692Z,0
2017-12-31T04:45:54.352Z,0
2017-12-31T04:46:55.016Z,0
2017-12-31T04:47:55.678Z,0
2017-12-31T04:48:56.342Z,0
2017-12-31T04:49:57.005Z,0
2017-12-31T04:50:57.665Z,0
2017-12-31T04:51:58.332Z,0
2017-12-31T04:52:59.043Z,0
2017-12-31T04:53:59.704Z,0
2017-12-31T04:55:00.368Z,0
2017-12-31T04:56:01.031Z,0
2017-12-31T04:57:01.728Z,0
2017-12-31T04:58:02.641Z,0
2017-12-31T04:59:03.303Z,0
2017-12-31T05:00:03.965Z,0
2017-12-31T05:01:04.627Z,0
2017-12-31T05:02:05.286Z,0
2017-12-31T05:03:05.949Z,0
2017-12-31T05:04:06.611Z,0
2017-12-31T05:05:07.273Z,0
2017-12-31T05:06:07.934Z,0
2017-12-31T05:07:08.597Z,0
2017-12-31T05:08:09.258Z,0
2017-12-31T05:09:09.921Z,0
2017-12-31T05:10:10.582Z,0
2017-12-31T05:11:11.247Z,0
2017-12-31T05:12:11.911Z,0
2017-12-31T05:13:12.574Z,0
2017-12-31T05:14:13.236Z,0
2017-12-31T05:15:13.899Z,0
2017-12-31T05:16:14.565Z,0
2017-12-31T05:17:15.224Z,0
2017-12-31T05:18:15.887Z,0
2017-12-31T05:19:16.550Z,0
2017-12-31T05:20:17.213Z,0
2017-12-31T05:21:17.877Z,0
2017-12-31T05:22:18.539Z,0
2017-12-31T05:23:19.202Z,0
2017-12-31T05:24:19.870Z,0
2017-12-31T05:25:20.527Z,0
2017-12-31T05:26:21.198Z,0
2017-12-31T05:27:21.854Z,0
2017-12-31T05:28:22.518Z,0
2017-12-31T05:29:23.183Z,0
2017-12-31T05:30:23.848Z,0
2017-12-31T05:31:24.513Z,0
2017-12-31T05:32:25.177Z,0
2017-12-31T05:33:25.840Z,0
2017-12-31T05:34:26.505Z,0
2017-12-31T05:35:27.172Z,0
2017-12-31T05:36:27.869Z,0
2017-12-31T05:37:28.570Z,0
2017-12-31T05:38:29.235Z,0
2017-12-31T05:39:29.898Z,0
2017-12-31T05:40:30.560Z,0
2017-12-31T05:41:31.222Z,0
2017-12-31T05:42:31.885Z,0
2017-12-31T05:43:32.546Z,0
2017-12-31T05:44:33.210Z,0
2017-12-31T05:45:33.874Z,0
2017-12-31T05:46:34.574Z,0
2017-12-31T05:47:35.236Z,0
2017-12-31T05:48:35.898Z,0
2017-12-31T05:49:36.560Z,0
2017-12-31T05:50:37.223Z,0
2017-12-31T05:51:37.885Z,0
2017-12-31T05:52:38.548Z,0
2017-12-31T05:53:39.210Z,0
2017-12-31T05:54:39.873Z,0
2017-12-31T05:55:40.535Z,0
2017-12-31T05:56:41.198Z,0
2017-12-31T05:57:41.860Z,0
2017-12-31T05:58:42.574Z,0
2017-12-31T05:59:43.239Z,0
2017-12-31T06:00:43.903Z,0
2017-12-31T06:01:44.566Z,0
2017-12-31T06:02:45.227Z,0
2017-12-31T06:03:45.891Z,0
2017-12-31T06:04:46.590Z,0
2017-12-31T06:05:47.253Z,0
2017-12-31T06:06:47.917Z,0
2017-12-31T06:07:48.582Z,0
2017-12-31T06:08:49.246Z,0
2017-12-31T06:09:49.908Z,0
2017-12-31T06:10:50.571Z,0
2017-12-31T06:11:51.234Z,0
2017-12-31T06:12:51.897Z,0
2017-12-31T06:13:52.562Z,0
2017-12-31T06:14:53.225Z,0
2017-12-31T06:15:53.887Z,0
2017-12-31T06:16:54.550Z,0
2017-12-31T06:17:55.213Z,0
2017-12-31T06:18:55.875Z,0
2017-12-31T06:19:56.541Z,0
2017-12-31T06:20:57.205Z,0
2017-12-31T06:21:57.867Z,0
2017-12-31T06:22:58.532Z,0
2017-12-31T06:23:59.199Z,0
2017-12-31T06:24:59.863Z,0
2017-12-31T06:26:00.524Z,0
2017-12-31T06:27:01.189Z,0
2017-12-31T06:28:01.850Z,0
2017-12-31T06:29:02.513Z,0
2017-12-31T06:30:03.178Z,0
2017-12-31T06:31:03.839Z,0
2017-12-31T06:32:04.503Z,0
2017-12-31T06:33:05.165Z,0
2017-12-31T06:34:05.830Z,0
2017-12-31T06:35:06.495Z,0
2017-12-31T06:36:07.158Z,0
2017-12-31T06:37:07.822Z,0
2017-12-31T06:38:08.487Z,0
2017-12-31T06:39:09.150Z,0
2017-12-31T06:40:09.813Z,0
2017-12-31T06:41:10.477Z,0
2017-12-31T06:42:11.140Z,0
2017-12-31T06:43:11.803Z,0
2017-12-31T06:44:12.465Z,0
2017-12-31T06:45:13.128Z,0
2017-12-31T06:46:13.790Z,0
2017-12-31T06:47:14.454Z,0
2017-12-31T06:48:15.118Z,0
2017-12-31T06:49:15.781Z,0
2017-12-31T06:50:16.444Z,0
2017-12-31T06:51:17.106Z,0
2017-12-31T06:52:17.771Z,0
2017-12-31T06:53:18.433Z,0
2017-12-31T06:54:19.097Z,0
2017-12-31T06:55:19.763Z,0
2017-12-31T06:56:20.428Z,0
2017-12-31T06:57:21.092Z,0
2017-12-31T06:58:21.756Z,0
2017-12-31T06:59:22.670Z,0
2017-12-31T07:00:23.335Z,0
2017-12-31T07:01:23.999Z,0
2017-12-31T07:02:24.666Z,0
2017-12-31T07:03:25.366Z,0
2017-12-31T07:04:26.031Z,0
2017-12-31T07:05:26.695Z,0
2017-12-31T07:06:27.360Z,0
2017-12-31T07:07:28.026Z,0
2017-12-31T07:08:28.690Z,0
2017-12-31T07:09:29.358Z,0
2017-12-31T07:10:30.025Z,0
2017-12-31T07:11:30.721Z,0
2017-12-31T07:12:31.388Z,0
2017-12-31T07:13:32.089Z,0
2017-12-31T07:14:32.754Z,0
2017-12-31T07:15:33.419Z,0
2017-12-31T07:16:34.084Z,0
2017-12-31T07:17:34.748Z,0
2017-12-31T07:18:35.453Z,0
2017-12-31T07:19:36.163Z,0
2017-12-31T07:20:36.827Z,0
2017-12-31T07:21:37.492Z,0
2017-12-31T07:22:38.163Z,0
2017-12-31T07:23:38.824Z,0
2017-12-31T07:24:39.491Z,0
2017-12-31T07:25:40.156Z,0
2017-12-31T07:26:40.820Z,0
2017-12-31T07:27:41.486Z,0
2017-12-31T07:28:42.150Z,5
2017-12-31T07:29:42.815Z,5
2017-12-31T07:30:43.483Z,5
2017-12-31T07:31:44.148Z,5
2017-12-31T07:32:44.811Z,5
2017-12-31T07:33:45.475Z,5
2017-12-31T07:34:46.139Z,5
2017-12-31T07:35:46.804Z,5
2017-12-31T07:36:47.468Z,5
2017-12-31T07:37:48.136Z,5
2017-12-31T07:38:48.798Z,5
2017-12-31T07:39:49.462Z,5
2017-12-31T07:40:50.129Z,11
2017-12-31T07:41:50.797Z,11
2017-12-31T07:42:51.464Z,11
2017-12-31T07:43:52.131Z,11
2017-12-31T07:44:52.846Z,11
2017-12-31T07:45:53.513Z,11
2017-12-31T07:46:54.178Z,5
2017-12-31T07:47:54.845Z,11
2017-12-31T07:48:55.509Z,5
2017-12-31T07:49:56.174Z,5
2017-12-31T07:50:56.839Z,5
2017-12-31T07:51:57.503Z,5
2017-12-31T07:52:58.166Z,5
2017-12-31T07:53:58.831Z,5
2017-12-31T07:54:59.498Z,5
2017-12-31T07:56:00.166Z,5
2017-12-31T07:57:00.833Z,5
2017-12-31T07:58:01.498Z,5
2017-12-31T07:59:02.163Z,5
2017-12-31T08:00:02.828Z,5
2017-12-31T08:01:03.496Z,5
2017-12-31T08:02:04.165Z,11
2017-12-31T08:03:04.830Z,11
2017-12-31T08:04:05.493Z,5
2017-12-31T08:05:06.159Z,5
2017-12-31T08:06:06.825Z,11
2017-12-31T08:07:07.492Z,11
2017-12-31T08:08:08.158Z,11
2017-12-31T08:09:08.826Z,11
2017-12-31T08:10:09.496Z,16
2017-12-31T08:11:10.166Z,11
2017-12-31T08:12:10.829Z,11
2017-12-31T08:13:11.495Z,11
2017-12-31T08:14:12.163Z,11
2017-12-31T08:15:12.830Z,11
2017-12-31T08:16:13.497Z,11
2017-12-31T08:17:14.163Z,11
2017-12-31T08:18:14.831Z,11
2017-12-31T08:19:15.493Z,16
2017-12-31T08:20:16.160Z,16
2017-12-31T08:21:16.826Z,16
2017-12-31T08:22:17.496Z,16
2017-12-31T08:23:18.163Z,16
2017-12-31T08:24:18.873Z,11
2017-12-31T08:25:19.497Z,11
2017-12-31T08:26:20.163Z,16
2017-12-31T08:27:20.831Z,16
2017-12-31T08:28:21.497Z,16
2017-12-31T08:29:22.163Z,28
2017-12-31T08:30:22.880Z,28
2017-12-31T08:31:23.551Z,33
2017-12-31T08:32:24.221Z,33
2017-12-31T08:33:24.887Z,33
2017-12-31T08:34:25.553Z,28
2017-12-31T08:35:26.221Z,28
2017-12-31T08:36:26.889Z,28
2017-12-31T08:37:27.556Z,33
2017-12-31T08:38:28.223Z,28
2017-12-31T08:39:28.889Z,28
2017-12-31T08:40:29.559Z,28
2017-12-31T08:41:30.228Z,33
2017-12-31T08:42:30.929Z,33
2017-12-31T08:43:31.600Z,39
2017-12-31T08:44:32.269Z,33
2017-12-31T08:45:32.985Z,28
2017-12-31T08:46:33.652Z,22
2017-12-31T08:47:34.359Z,22
2017-12-31T08:48:34.986Z,28
2017-12-31T08:49:35.653Z,28
2017-12-31T08:50:36.320Z,28
2017-12-31T08:51:36.988Z,28
2017-12-31T08:52:37.657Z,33
2017-12-31T08:53:38.327Z,33
2017-12-31T08:54:38.994Z,33
2017-12-31T08:55:39.715Z,45
2017-12-31T08:56:40.414Z,39
2017-12-31T08:57:41.084Z,45
2017-12-31T08:58:41.752Z,39
2017-12-31T08:59:42.422Z,33
2017-12-31T09:00:43.087Z,33
2017-12-31T09:01:43.791Z,33
2017-12-31T09:02:44.459Z,33
2017-12-31T09:03:45.128Z,28
2017-12-31T09:04:45.831Z,39
2017-12-31T09:05:46.500Z,39
2017-12-31T09:06:47.170Z,50
2017-12-31T09:07:47.838Z,45
2017-12-31T09:08:48.505Z,67
2017-12-31T09:09:49.173Z,56
2017-12-31T09:10:49.841Z,67
2017-12-31T09:11:50.509Z,73
2017-12-31T09:12:51.178Z,73
2017-12-31T09:13:51.847Z,78
2017-12-31T09:14:52.516Z,90
2017-12-31T09:15:53.186Z,106
2017-12-31T09:16:53.856Z,101
2017-12-31T09:17:54.525Z,95
2017-12-31T09:18:55.195Z,118
2017-12-31T09:19:55.864Z,123
2017-12-31T09:20:56.533Z,123
2017-12-31T09:21:57.203Z,101
2017-12-31T09:22:57.873Z,84
2017-12-31T09:23:58.543Z,78
2017-12-31T09:24:59.211Z,90
2017-12-31T09:25:59.974Z,95
2017-12-31T09:27:00.605Z,101
2017-12-31T09:28:01.306Z,101
2017-12-31T09:29:01.976Z,112
2017-12-31T09:30:02.649Z,112
2017-12-31T09:31:03.320Z,112
2017-12-31T09:32:03.990Z,106
2017-12-31T09:33:04.659Z,123
2017-12-31T09:34:05.330Z,112
2017-12-31T09:35:06.000Z,106
2017-12-31T09:36:06.669Z,101
2017-12-31T09:37:07.339Z,118
2017-12-31T09:38:08.011Z,112
2017-12-31T09:39:08.682Z,106
2017-12-31T09:40:09.351Z,101
2017-12-31T09:41:10.022Z,101
2017-12-31T09:42:10.690Z,95
2017-12-31T09:43:11.360Z,101
2017-12-31T09:44:12.029Z,106
2017-12-31T09:45:12.698Z,106
2017-12-31T09:46:13.371Z,123
2017-12-31T09:47:14.041Z,106
2017-12-31T09:48:14.710Z,106
2017-12-31T09:49:15.381Z,112
2017-12-31T09:50:16.053Z,112
2017-12-31T09:51:16.758Z,112
2017-12-31T09:52:17.426Z,118
2017-12-31T09:53:18.096Z,112
2017-12-31T09:54:18.766Z,129
2017-12-31T09:55:19.438Z,129
2017-12-31T09:56:20.110Z,140
2017-12-31T09:57:20.782Z,129
2017-12-31T09:58:21.451Z,129
2017-12-31T09:59:22.121Z,135
2017-12-31T10:00:22.792Z,135
2017-12-31T10:01:23.461Z,129
2017-12-31T10:02:24.133Z,129
2017-12-31T10:03:24.805Z,123
2017-12-31T10:04:25.474Z,135
2017-12-31T10:05:26.146Z,129
2017-12-31T10:06:26.818Z,129
2017-12-31T10:07:27.487Z,123
2017-12-31T10:08:28.160Z,123
2017-12-31T10:09:28.827Z,123
2017-12-31T10:10:29.499Z,118
2017-12-31T10:11:30.171Z,118
2017-12-31T10:12:30.841Z,118
2017-12-31T10:13:31.511Z,118
2017-12-31T10:14:32.184Z,118
2017-12-31T10:15:32.850Z,123
2017-12-31T10:16:33.520Z,123
2017-12-31T10:17:34.193Z,129
2017-12-31T10:18:34.863Z,135
2017-12-31T10:19:35.535Z,135
2017-12-31T10:20:36.205Z,129
2017-12-31T10:21:36.876Z,135
2017-12-31T10:22:37.548Z,129
2017-12-31T10:23:38.218Z,123
2017-12-31T10:24:38.891Z,129
2017-12-31T10:25:39.562Z,123
2017-12-31T10:26:40.232Z,123
2017-12-31T10:27:40.904Z,118
2017-12-31T10:28:41.577Z,123
2017-12-31T10:29:42.279Z,123
2017-12-31T10:30:42.952Z,123
2017-12-31T10:31:43.619Z,123
2017-12-31T10:32:44.292Z,118
2017-12-31T10:33:44.965Z,123
2017-12-31T10:34:45.690Z,123
2017-12-31T10:35:46.306Z,123
2017-12-31T10:36:46.977Z,123
2017-12-31T10:37:47.648Z,123
2017-12-31T10:38:48.317Z,118
2017-12-31T10:39:48.988Z,123
2017-12-31T10:40:49.661Z,118
2017-12-31T10:41:50.330Z,123
2017-12-31T10:42:51.002Z,118
2017-12-31T10:43:51.673Z,118
2017-12-31T10:44:52.384Z,112
2017-12-31T10:45:53.055Z,112
2017-12-31T10:46:53.725Z,106
2017-12-31T10:47:54.396Z,101
2017-12-31T10:48:55.069Z,106
2017-12-31T10:49:55.739Z,106
2017-12-31T10:50:56.410Z,106
2017-12-31T10:51:57.081Z,106
2017-12-31T10:52:57.752Z,106
2017-12-31T10:53:58.419Z,95
2017-12-31T10:54:59.086Z,90
2017-12-31T10:55:59.755Z,84
2017-12-31T10:57:00.426Z,84
2017-12-31T10:58:01.097Z,84
2017-12-31T10:59:01.766Z,84
2017-12-31T11:00:02.436Z,84
2017-12-31T11:01:03.105Z,84
2017-12-31T11:02:03.776Z,84
2017-12-31T11:03:04.444Z,78
2017-12-31T11:04:05.113Z,78
2017-12-31T11:05:05.783Z,78
2017-12-31T11:06:06.454Z,90
2017-12-31T11:07:07.123Z,90
2017-12-31T11:08:07.794Z,84
2017-12-31T11:09:08.512Z,84
2017-12-31T11:10:09.132Z,90
2017-12-31T11:11:09.801Z,84
2017-12-31T11:12:10.470Z,84
2017-12-31T11:13:11.138Z,84
2017-12-31T11:14:11.807Z,84
2017-12-31T11:15:12.478Z,84
2017-12-31T11:16:13.148Z,78
2017-12-31T11:17:13.818Z,78
2017-12-31T11:18:14.487Z,78
2017-12-31T11:19:15.158Z,78
2017-12-31T11:20:15.827Z,84
2017-12-31T11:21:16.496Z,84
2017-12-31T11:22:17.166Z,84
2017-12-31T11:23:17.834Z,78
2017-12-31T11:24:18.505Z,78
2017-12-31T11:25:19.181Z,90
2017-12-31T11:26:19.845Z,90
2017-12-31T11:27:20.515Z,90
2017-12-31T11:28:21.185Z,90
2017-12-31T11:29:21.854Z,90
2017-12-31T11:30:22.522Z,90
2017-12-31T11:31:23.191Z,90
2017-12-31T11:32:23.861Z,90
2017-12-31T11:33:24.532Z,95
2017-12-31T11:34:25.202Z,95
2017-12-31T11:35:25.872Z,95
2017-12-31T11:36:26.542Z,106
2017-12-31T11:37:27.213Z,112
2017-12-31T11:38:27.883Z,101
2017-12-31T11:39:28.550Z,95
2017-12-31T11:40:29.220Z,95
2017-12-31T11:41:29.895Z,101
2017-12-31T11:42:30.562Z,106
2017-12-31T11:43:31.232Z,101
2017-12-31T11:44:31.903Z,106
2017-12-31T11:45:32.574Z,101
2017-12-31T11:46:33.244Z,101
2017-12-31T11:47:33.913Z,95
2017-12-31T11:48:34.585Z,101
2017-12-31T11:49:35.256Z,118
2017-12-31T11:50:35.927Z,135
2017-12-31T11:51:36.598Z,146
2017-12-31T11:52:37.268Z,146
2017-12-31T11:53:37.937Z,146
2017-12-31T11:54:38.608Z,129
2017-12-31T11:55:39.281Z,129
2017-12-31T11:56:39.955Z,123
2017-12-31T11:57:40.620Z,123
2017-12-31T11:58:41.296Z,135
2017-12-31T11:59:41.962Z,129
2017-12-31T12:00:42.632Z,123
2017-12-31T12:01:43.340Z,112
2017-12-31T12:02:44.010Z,112
2017-12-31T12:03:44.679Z,106
2017-12-31T12:04:45.347Z,95
2017-12-31T12:05:46.020Z,101
2017-12-31T12:06:46.689Z,95
2017-12-31T12:07:47.358Z,95
2017-12-31T12:08:48.029Z,90
2017-12-31T12:09:48.700Z,90
2017-12-31T12:10:49.388Z,78
2017-12-31T12:11:50.041Z,73
2017-12-31T12:12:50.712Z,73
2017-12-31T12:13:51.384Z,78
2017-12-31T12:14:52.053Z,73
2017-12-31T12:15:52.723Z,78
2017-12-31T12:16:53.394Z,78
2017-12-31T12:17:54.066Z,73
2017-12-31T12:18:54.772Z,73
2017-12-31T12:19:55.447Z,73
2017-12-31T12:20:56.146Z,73
2017-12-31T12:21:56.816Z,73
2017-12-31T12:22:57.485Z,61
2017-12-31T12:23:58.155Z,67
2017-12-31T12:24:58.826Z,61
2017-12-31T12:25:59.497Z,50
2017-12-31T12:27:00.207Z,56
2017-12-31T12:28:00.876Z,67
2017-12-31T12:29:01.546Z,73
2017-12-31T12:30:02.217Z,61
2017-12-31T12:31:02.885Z,61
2017-12-31T12:32:03.555Z,67
2017-12-31T12:33:04.274Z,73
2017-12-31T12:34:04.943Z,84
2017-12-31T12:35:05.613Z,73
2017-12-31T12:36:06.283Z,67
2017-12-31T12:37:06.953Z,67
2017-12-31T12:38:07.622Z,73
2017-12-31T12:39:08.291Z,73
2017-12-31T12:40:08.961Z,73
2017-12-31T12:41:09.631Z,78
2017-12-31T12:42:10.301Z,78
2017-12-31T12:43:11.022Z,67
2017-12-31T12:44:11.769Z,67
2017-12-31T12:45:12.397Z,61
2017-12-31T12:46:13.068Z,61
2017-12-31T12:47:13.737Z,45
2017-12-31T12:48:14.405Z,39
2017-12-31T12:49:15.101Z,33
2017-12-31T12:50:15.742Z,33
2017-12-31T12:51:16.413Z,39
2017-12-31T12:52:17.084Z,45
2017-12-31T12:53:17.754Z,45
2017-12-31T12:54:18.424Z,39
2017-12-31T12:55:19.113Z,50
2017-12-31T12:56:19.764Z,61
2017-12-31T12:57:20.433Z,45
2017-12-31T12:58:21.101Z,45
2017-12-31T12:59:21.771Z,33
2017-12-31T13:00:22.443Z,28
2017-12-31T13:01:23.110Z,39
2017-12-31T13:02:23.779Z,45
2017-12-31T13:03:24.449Z,39
2017-12-31T13:04:25.116Z,28
2017-12-31T13:05:25.784Z,28
2017-12-31T13:06:26.454Z,33
2017-12-31T13:07:27.122Z,33
2017-12-31T13:08:27.793Z,39
2017-12-31T13:09:28.459Z,28
2017-12-31T13:10:29.132Z,33
2017-12-31T13:11:29.801Z,33
2017-12-31T13:12:30.470Z,39
2017-12-31T13:13:31.138Z,45
2017-12-31T13:14:31.806Z,45
2017-12-31T13:15:32.476Z,50
2017-12-31T13:16:33.144Z,67
2017-12-31T13:17:33.811Z,73
2017-12-31T13:18:34.480Z,73
2017-12-31T13:19:35.149Z,73
2017-12-31T13:20:35.820Z,67
2017-12-31T13:21:36.490Z,56
2017-12-31T13:22:37.158Z,45
2017-12-31T13:23:37.828Z,45
2017-12-31T13:24:38.498Z,45
2017-12-31T13:25:39.167Z,61
2017-12-31T13:26:39.835Z,56
2017-12-31T13:27:40.502Z,50
2017-12-31T13:28:41.172Z,50
2017-12-31T13:29:41.844Z,50
2017-12-31T13:30:42.517Z,56
2017-12-31T13:31:43.186Z,56
2017-12-31T13:32:43.856Z,61
2017-12-31T13:33:44.561Z,61
2017-12-31T13:34:45.232Z,61
2017-12-31T13:35:45.898Z,56
2017-12-31T13:36:46.566Z,61
2017-12-31T13:37:47.235Z,61
2017-12-31T13:38:47.906Z,56
2017-12-31T13:39:48.577Z,56
2017-12-31T13:40:49.244Z,56
2017-12-31T13:41:49.915Z,56
2017-12-31T13:42:50.618Z,50
2017-12-31T13:43:51.286Z,50
2017-12-31T13:44:51.955Z,50
2017-12-31T13:45:52.626Z,45
2017-12-31T13:46:53.293Z,39
2017-12-31T13:47:53.962Z,39
2017-12-31T13:48:54.630Z,39
2017-12-31T13:49:55.302Z,33
2017-12-31T13:50:55.970Z,28
2017-12-31T13:51:56.641Z,22
2017-12-31T13:52:57.306Z,16
2017-12-31T13:53:57.974Z,16
2017-12-31T13:54:58.641Z,16
2017-12-31T13:55:59.311Z,16
2017-12-31T13:56:59.979Z,16
2017-12-31T13:58:00.682Z,22
2017-12-31T13:59:01.349Z,16
2017-12-31T14:00:02.016Z,16
2017-12-31T14:01:02.685Z,16
2017-12-31T14:02:03.354Z,16
2017-12-31T14:03:04.025Z,16
2017-12-31T14:04:04.693Z,16
2017-12-31T14:05:05.358Z,16
2017-12-31T14:06:06.027Z,22
2017-12-31T14:07:06.694Z,22
2017-12-31T14:08:07.361Z,22
2017-12-31T14:09:08.032Z,22
2017-12-31T14:10:08.699Z,28
2017-12-31T14:11:09.366Z,28
2017-12-31T14:12:10.069Z,28
2017-12-31T14:13:10.736Z,28
2017-12-31T14:14:11.408Z,33
2017-12-31T14:15:12.111Z,33
2017-12-31T14:16:12.777Z,28
2017-12-31T14:17:13.443Z,22
2017-12-31T14:18:14.110Z,22
2017-12-31T14:19:14.782Z,28
2017-12-31T14:20:15.449Z,28
2017-12-31T14:21:16.115Z,28
2017-12-31T14:22:16.783Z,22
2017-12-31T14:23:17.451Z,22
2017-12-31T14:24:18.122Z,16
2017-12-31T14:25:18.790Z,16
2017-12-31T14:26:19.457Z,11
2017-12-31T14:27:20.126Z,11
2017-12-31T14:28:20.794Z,11
2017-12-31T14:29:21.463Z,11
2017-12-31T14:30:22.135Z,11
2017-12-31T14:31:22.803Z,11
2017-12-31T14:32:23.471Z,11
2017-12-31T14:33:24.139Z,11
2017-12-31T14:34:24.810Z,11
2017-12-31T14:35:25.473Z,11
2017-12-31T14:36:26.140Z,11
2017-12-31T14:37:26.806Z,11
2017-12-31T14:38:27.471Z,5